Time;durP1;ratioP1;P1;durP2;ratioP2;P2;SDS_P1;SDS_P2;PMS_P1;PMS_P2;Temp;Humidity;BMP_temperature;BMP_pressure;BME280_temperature;BME280_humidity;BME280_pressure;Samples;Min_cycle;Max_cycle;Signal;HPM_P1;HPM_P2
2022/01/04 00:01:16;;;;;;;;;;;19.10;53.20;;;;;;5074480;28;19908;-61
2022/01/04 00:03:41;;;;;;;;;;;19.10;53.00;;;;;;5074687;28;19962;-61
2022/01/04 00:06:08;;;;;;;;;;;19.10;53.20;;;;;;5074313;28;19908;-60
2022/01/04 00:08:33;;;;;;;;;;;19.10;53.20;;;;;;5074582;28;19909;-60
2022/01/04 00:11:43;;;;;;;;;;;19.00;53.10;;;;;;5074098;28;20011;-60
2022/01/04 00:13:50;;;;;;;;;;;19.10;53.20;;;;;;5073921;28;19915;-60
2022/01/04 00:16:16;;;;;;;;;;;19.10;53.20;;;;;;5072963;28;20331;-60
2022/01/04 00:18:41;;;;;;;;;;;19.00;53.20;;;;;;5073440;28;20331;-61
2022/01/04 00:21:07;;;;;;;;;;;19.00;53.10;;;;;;5074071;28;19977;-60
2022/01/04 00:23:33;;;;;;;;;;;19.00;53.20;;;;;;5074256;28;19908;-62
2022/01/04 00:25:58;;;;;;;;;;;19.00;53.30;;;;;;5074013;28;19996;-61
2022/01/04 00:28:24;;;;;;;;;;;19.00;53.20;;;;;;5074173;28;19913;-62
2022/01/04 00:30:50;;;;;;;;;;;19.00;53.10;;;;;;5073910;28;19956;-61
2022/01/04 00:33:19;;;;;;;;;;;19.00;53.10;;;;;;5072620;28;20279;-61
2022/01/04 00:35:45;;;;;;;;;;;19.00;53.10;;;;;;5074215;28;19908;-61
2022/01/04 00:38:10;;;;;;;;;;;19.00;53.10;;;;;;5074120;28;19908;-61
2022/01/04 00:40:36;;;;;;;;;;;19.00;53.10;;;;;;5073855;28;20005;-61
2022/01/04 00:43:03;;;;;;;;;;;19.00;53.10;;;;;;5073776;28;19915;-62
2022/01/04 00:45:32;;;;;;;;;;;19.00;53.00;;;;;;5073619;28;19915;-62
2022/01/04 00:50:24;;;;;;;;;;;19.00;53.00;;;;;;5073912;28;19923;-61
2022/01/04 00:52:50;;;;;;;;;;;19.00;53.00;;;;;;5072395;28;19935;-61
2022/01/04 00:55:15;;;;;;;;;;;19.00;53.10;;;;;;5073613;28;20007;-61
2022/01/04 00:57:41;;;;;;;;;;;19.00;53.00;;;;;;5075866;28;19915;-62
2022/01/04 01:00:07;;;;;;;;;;;19.00;53.10;;;;;;5075653;28;20367;-61
2022/01/04 01:02:33;;;;;;;;;;;19.00;53.00;;;;;;5093826;28;19954;-61
2022/01/04 01:04:58;;;;;;;;;;;19.00;53.00;;;;;;5094034;28;19908;-61
2022/01/04 01:07:24;;;;;;;;;;;19.00;52.90;;;;;;5093934;28;19908;-60
2022/01/04 01:10:14;;;;;;;;;;;19.00;53.00;;;;;;5093737;28;19968;-60
2022/01/04 01:12:40;;;;;;;;;;;18.90;52.90;;;;;;5093504;28;19908;-61
2022/01/04 01:15:07;;;;;;;;;;;19.00;52.90;;;;;;5093782;28;20302;-61
2022/01/04 01:17:33;;;;;;;;;;;19.00;52.90;;;;;;5093402;28;19909;-61
2022/01/04 01:19:58;;;;;;;;;;;19.00;52.90;;;;;;5093724;28;19995;-61
2022/01/04 01:22:24;;;;;;;;;;;19.00;52.90;;;;;;5093478;28;20356;-61
2022/01/04 01:24:49;;;;;;;;;;;19.00;52.90;;;;;;5093508;28;20368;-61
2022/01/04 01:27:15;;;;;;;;;;;18.90;53.00;;;;;;5093393;28;19947;-61
2022/01/04 01:29:40;;;;;;;;;;;19.00;53.00;;;;;;5094035;28;20349;-61
2022/01/04 01:32:06;;;;;;;;;;;19.00;52.90;;;;;;5097647;28;20392;-61
2022/01/04 01:34:31;;;;;;;;;;;18.90;52.90;;;;;;5097568;28;20004;-61
2022/01/04 01:36:57;;;;;;;;;;;19.00;52.90;;;;;;5097540;28;19915;-61
2022/01/04 01:39:22;;;;;;;;;;;18.90;52.90;;;;;;5097527;28;19954;-61
2022/01/04 01:41:48;;;;;;;;;;;18.90;52.90;;;;;;5097459;28;19909;-61
2022/01/04 01:44:13;;;;;;;;;;;18.90;52.80;;;;;;5097356;28;20365;-61
2022/01/04 01:46:39;;;;;;;;;;;18.90;52.80;;;;;;5097206;28;19908;-61
2022/01/04 01:49:05;;;;;;;;;;;18.90;52.80;;;;;;5097215;28;19919;-61
2022/01/04 01:51:31;;;;;;;;;;;18.90;52.80;;;;;;5097267;28;20002;-61
2022/01/04 01:53:57;;;;;;;;;;;18.90;52.70;;;;;;5097187;28;20244;-61
2022/01/04 01:56:22;;;;;;;;;;;18.90;52.70;;;;;;5097277;28;20270;-61
2022/01/04 01:58:48;;;;;;;;;;;18.90;52.70;;;;;;5097100;28;20002;-61
2022/01/04 02:01:13;;;;;;;;;;;18.90;52.70;;;;;;5096962;28;19908;-61
2022/01/04 02:03:39;;;;;;;;;;;18.90;52.70;;;;;;5096980;28;19953;-61
2022/01/04 02:06:05;;;;;;;;;;;18.90;52.70;;;;;;5078685;28;20062;-61
2022/01/04 02:08:31;;;;;;;;;;;18.90;52.60;;;;;;5096872;28;19978;-61
2022/01/04 02:10:58;;;;;;;;;;;18.90;52.60;;;;;;5096689;28;19916;-61
2022/01/04 02:13:24;;;;;;;;;;;18.90;52.60;;;;;;5096813;28;19919;-61
2022/01/04 02:15:51;;;;;;;;;;;18.90;52.60;;;;;;5096928;28;19908;-61
2022/01/04 02:18:16;;;;;;;;;;;18.90;52.60;;;;;;5096599;28;19958;-61
2022/01/04 02:20:42;;;;;;;;;;;18.90;52.60;;;;;;5078431;28;19951;-61
2022/01/04 02:23:07;;;;;;;;;;;18.90;52.60;;;;;;5096807;28;19991;-61
2022/01/04 02:25:33;;;;;;;;;;;18.90;52.60;;;;;;5096769;28;19908;-61
2022/01/04 02:27:59;;;;;;;;;;;18.90;52.50;;;;;;5078401;28;19912;-61
2022/01/04 02:30:24;;;;;;;;;;;18.90;52.50;;;;;;5096511;28;19916;-61
2022/01/04 02:32:50;;;;;;;;;;;18.90;52.50;;;;;;5096323;28;19914;-61
2022/01/04 02:35:16;;;;;;;;;;;18.90;52.50;;;;;;5096697;28;19996;-61
2022/01/04 02:37:42;;;;;;;;;;;18.90;52.50;;;;;;5096371;28;19908;-61
2022/01/04 02:40:08;;;;;;;;;;;18.90;52.50;;;;;;5078208;28;19908;-61
2022/01/04 02:42:33;;;;;;;;;;;18.90;52.50;;;;;;5095046;28;19916;-61
2022/01/04 02:45:00;;;;;;;;;;;18.80;52.50;;;;;;5096317;28;19951;-62
2022/01/04 02:47:26;;;;;;;;;;;18.90;52.50;;;;;;5077996;28;19954;-61
2022/01/04 02:49:51;;;;;;;;;;;18.90;52.50;;;;;;5077988;28;19916;-61
2022/01/04 02:52:17;;;;;;;;;;;18.80;52.50;;;;;;5096354;28;19908;-61
2022/01/04 02:54:42;;;;;;;;;;;18.80;52.50;;;;;;5096080;28;19908;-61
2022/01/04 02:57:08;;;;;;;;;;;18.90;52.40;;;;;;5096242;28;20363;-61
2022/01/04 02:59:33;;;;;;;;;;;18.90;52.40;;;;;;5095796;28;19927;-61
2022/01/04 03:01:59;;;;;;;;;;;18.90;52.40;;;;;;5095937;28;19908;-61
2022/01/04 03:04:24;;;;;;;;;;;18.80;52.50;;;;;;5096107;28;19908;-61
2022/01/04 03:06:50;;;;;;;;;;;18.90;52.50;;;;;;5095873;28;20309;-61
2022/01/04 03:09:15;;;;;;;;;;;18.90;52.40;;;;;;5095671;28;20011;-62
2022/01/04 03:11:41;;;;;;;;;;;18.90;52.40;;;;;;5095937;28;19939;-61
2022/01/04 03:14:06;;;;;;;;;;;18.80;52.40;;;;;;5095784;28;19915;-61
2022/01/04 03:16:32;;;;;;;;;;;18.90;52.40;;;;;;5095656;28;19909;-61
2022/01/04 03:21:23;;;;;;;;;;;18.80;52.40;;;;;;5095685;28;19908;-61
2022/01/04 03:23:48;;;;;;;;;;;18.90;52.30;;;;;;5096006;28;19962;-61
2022/01/04 03:26:14;;;;;;;;;;;18.80;52.30;;;;;;5095528;28;19912;-61
2022/01/04 03:28:40;;;;;;;;;;;18.80;52.30;;;;;;5095475;28;20355;-61
2022/01/04 03:31:06;;;;;;;;;;;18.80;52.40;;;;;;5095416;28;19946;-61
2022/01/04 03:33:32;;;;;;;;;;;18.80;52.30;;;;;;5095617;28;19931;-61
2022/01/04 03:35:57;;;;;;;;;;;18.80;52.30;;;;;;5077133;28;20359;-61
2022/01/04 03:38:23;;;;;;;;;;;18.80;52.30;;;;;;5095445;28;19915;-61
2022/01/04 03:40:48;;;;;;;;;;;18.80;52.30;;;;;;5095125;28;20408;-61
2022/01/04 03:43:13;;;;;;;;;;;18.80;52.30;;;;;;5076892;28;19908;-61
2022/01/04 03:45:39;;;;;;;;;;;18.80;52.30;;;;;;5095068;28;19908;-61
2022/01/04 03:48:04;;;;;;;;;;;18.80;52.30;;;;;;5095267;28;19908;-61
2022/01/04 03:50:30;;;;;;;;;;;18.80;52.30;;;;;;5076742;28;20007;-61
2022/01/04 03:52:55;;;;;;;;;;;18.80;52.30;;;;;;5094709;28;19912;-61
2022/01/04 03:55:21;;;;;;;;;;;18.80;52.30;;;;;;5094740;28;19920;-61
2022/01/04 03:57:46;;;;;;;;;;;18.80;52.20;;;;;;5094762;28;19912;-61
2022/01/04 04:00:12;;;;;;;;;;;18.80;52.20;;;;;;5094822;28;19913;-61
2022/01/04 04:02:38;;;;;;;;;;;18.80;52.20;;;;;;5094697;28;19912;-61
2022/01/04 04:05:05;;;;;;;;;;;18.80;52.20;;;;;;5094667;28;20030;-61
2022/01/04 04:07:30;;;;;;;;;;;18.80;52.20;;;;;;5094666;28;19923;-61
2022/01/04 04:09:55;;;;;;;;;;;18.80;52.30;;;;;;5094438;28;19924;-61
2022/01/04 04:12:23;;;;;;;;;;;18.80;52.20;;;;;;5094525;28;19908;-61
2022/01/04 04:14:48;;;;;;;;;;;18.80;52.10;;;;;;5094791;28;19912;-61
2022/01/04 04:17:14;;;;;;;;;;;18.80;52.10;;;;;;5094441;28;19908;-61
2022/01/04 04:19:39;;;;;;;;;;;18.80;52.10;;;;;;5094478;28;19953;-61
2022/01/04 04:22:05;;;;;;;;;;;18.80;52.10;;;;;;5094433;28;20306;-61
2022/01/04 04:24:30;;;;;;;;;;;18.80;52.10;;;;;;5094499;28;19908;-60
2022/01/04 04:26:56;;;;;;;;;;;18.80;52.10;;;;;;5094255;28;20363;-60
2022/01/04 04:29:21;;;;;;;;;;;18.80;52.10;;;;;;5094158;28;19916;-60
2022/01/04 04:31:47;;;;;;;;;;;18.80;52.10;;;;;;5094464;28;19912;-60
2022/01/04 04:34:12;;;;;;;;;;;18.80;52.10;;;;;;5094234;28;19908;-60
2022/01/04 04:36:37;;;;;;;;;;;18.80;52.00;;;;;;5094148;28;19908;-60
2022/01/04 04:39:04;;;;;;;;;;;18.80;52.00;;;;;;5094020;28;19977;-60
2022/01/04 04:41:29;;;;;;;;;;;18.80;52.10;;;;;;5094289;28;19908;-61
2022/01/04 04:43:55;;;;;;;;;;;18.80;52.00;;;;;;5094179;28;19915;-61
2022/01/04 04:46:21;;;;;;;;;;;18.80;52.10;;;;;;5093979;28;19914;-60
2022/01/04 04:48:46;;;;;;;;;;;18.80;52.00;;;;;;5093985;28;19921;-61
2022/01/04 04:51:12;;;;;;;;;;;18.80;52.10;;;;;;5094122;28;20360;-61
2022/01/04 04:53:37;;;;;;;;;;;18.80;52.20;;;;;;5093785;28;19916;-61
2022/01/04 04:56:03;;;;;;;;;;;18.80;52.00;;;;;;5094071;28;19908;-60
2022/01/04 04:58:29;;;;;;;;;;;18.80;52.10;;;;;;5093570;28;19916;-61
2022/01/04 05:00:54;;;;;;;;;;;18.80;52.00;;;;;;5093884;28;19916;-60
2022/01/04 05:03:20;;;;;;;;;;;18.80;52.00;;;;;;5093634;28;19915;-60
2022/01/04 05:05:45;;;;;;;;;;;18.80;52.00;;;;;;5093080;28;19908;-60
2022/01/04 05:08:11;;;;;;;;;;;18.80;51.90;;;;;;5093569;28;19908;-61
2022/01/04 05:10:36;;;;;;;;;;;18.80;51.90;;;;;;5093850;28;19920;-61
2022/01/04 05:13:01;;;;;;;;;;;18.80;52.00;;;;;;5093566;28;20291;-61
2022/01/04 05:15:27;;;;;;;;;;;18.80;52.00;;;;;;5093700;28;19919;-60
2022/01/04 05:17:52;;;;;;;;;;;18.90;52.00;;;;;;5093847;28;19999;-60
2022/01/04 05:20:18;;;;;;;;;;;18.90;52.10;;;;;;5093550;28;19916;-60
2022/01/04 05:22:43;;;;;;;;;;;18.90;52.10;;;;;;5093464;28;19914;-60
2022/01/04 05:25:09;;;;;;;;;;;18.90;52.10;;;;;;5093708;28;19944;-61
2022/01/04 05:27:34;;;;;;;;;;;18.90;52.10;;;;;;5093483;28;20317;-60
2022/01/04 05:30:00;;;;;;;;;;;18.90;52.00;;;;;;5075338;28;20444;-61
2022/01/04 05:32:25;;;;;;;;;;;19.00;51.90;;;;;;5093403;28;20345;-60
2022/01/04 05:34:51;;;;;;;;;;;19.00;51.90;;;;;;5093411;28;19961;-60
2022/01/04 05:37:16;;;;;;;;;;;19.00;51.80;;;;;;5093376;28;20443;-61
2022/01/04 05:39:42;;;;;;;;;;;19.10;51.80;;;;;;5093414;28;20267;-60
2022/01/04 05:42:10;;;;;;;;;;;19.10;51.80;;;;;;5093278;28;19908;-61
2022/01/04 05:44:36;;;;;;;;;;;19.10;51.70;;;;;;5093395;28;19908;-61
2022/01/04 05:47:02;;;;;;;;;;;19.10;51.70;;;;;;5093291;28;19908;-61
2022/01/04 05:49:28;;;;;;;;;;;19.10;51.70;;;;;;5093287;28;19916;-60
2022/01/04 05:51:53;;;;;;;;;;;19.10;51.60;;;;;;5093178;28;19930;-61
2022/01/04 05:54:19;;;;;;;;;;;19.20;51.60;;;;;;5093279;28;19908;-61
2022/01/04 05:56:44;;;;;;;;;;;19.20;51.50;;;;;;5075187;28;20326;-61
2022/01/04 05:59:09;;;;;;;;;;;19.20;51.60;;;;;;5093168;28;19930;-61
2022/01/04 06:01:35;;;;;;;;;;;19.20;51.50;;;;;;5093137;28;19914;-60
2022/01/04 06:04:00;;;;;;;;;;;19.20;51.50;;;;;;5093230;28;20378;-61
2022/01/04 06:06:26;;;;;;;;;;;19.30;51.50;;;;;;5092984;28;19912;-61
2022/01/04 06:08:52;;;;;;;;;;;19.30;51.40;;;;;;5093126;28;19909;-60
2022/01/04 06:11:55;;;;;;;;;;;19.30;51.40;;;;;;5092993;28;19916;-60
2022/01/04 06:17:03;;;;;;;;;;;19.40;51.30;;;;;;5095821;28;20290;-60
2022/01/04 06:19:28;;;;;;;;;;;19.40;51.20;;;;;;5096976;28;19981;-60
2022/01/04 06:21:54;;;;;;;;;;;19.40;51.10;;;;;;5096778;28;19908;-61
2022/01/04 06:24:19;;;;;;;;;;;19.40;51.00;;;;;;5096685;28;19912;-60
2022/01/04 06:26:45;;;;;;;;;;;19.40;51.10;;;;;;5096363;28;19919;-60
2022/01/04 06:29:11;;;;;;;;;;;19.50;51.10;;;;;;5096475;28;19908;-60
2022/01/04 06:31:38;;;;;;;;;;;19.50;51.10;;;;;;5096513;28;19920;-60
2022/01/04 06:34:04;;;;;;;;;;;19.50;51.00;;;;;;5096684;28;19915;-60
2022/01/04 06:36:29;;;;;;;;;;;19.50;51.00;;;;;;5078355;28;20006;-60
2022/01/04 06:38:54;;;;;;;;;;;19.50;50.90;;;;;;5096530;28;19955;-60
2022/01/04 06:41:21;;;;;;;;;;;19.50;50.90;;;;;;5096286;28;19962;-60
2022/01/04 06:43:47;;;;;;;;;;;19.60;50.80;;;;;;5096418;28;19916;-60
2022/01/04 06:46:13;;;;;;;;;;;19.50;50.90;;;;;;5096255;28;20351;-60
2022/01/04 06:48:39;;;;;;;;;;;19.60;50.90;;;;;;5096344;28;19923;-60
2022/01/04 06:51:05;;;;;;;;;;;19.50;50.90;;;;;;5095974;28;19920;-60
2022/01/04 06:53:30;;;;;;;;;;;19.60;50.90;;;;;;5096102;28;19953;-61
2022/01/04 06:55:55;;;;;;;;;;;19.60;50.80;;;;;;5096153;28;20373;-60
2022/01/04 06:58:21;;;;;;;;;;;19.60;50.90;;;;;;5095874;28;20006;-60
2022/01/04 07:00:47;;;;;;;;;;;19.60;50.80;;;;;;5095900;28;19965;-60
2022/01/04 07:03:12;;;;;;;;;;;19.60;50.90;;;;;;5077747;28;19908;-61
2022/01/04 07:05:38;;;;;;;;;;;19.60;50.80;;;;;;5095820;28;19915;-60
2022/01/04 07:08:04;;;;;;;;;;;19.60;50.80;;;;;;5095797;28;19908;-60
2022/01/04 07:10:30;;;;;;;;;;;19.70;50.70;;;;;;5077461;28;19916;-60
2022/01/04 07:12:55;;;;;;;;;;;19.70;50.70;;;;;;5095818;28;19909;-61
2022/01/04 07:15:21;;;;;;;;;;;19.70;50.70;;;;;;5095688;28;19908;-61
2022/01/04 07:17:46;;;;;;;;;;;19.70;50.70;;;;;;5095600;28;19912;-60
2022/01/04 07:20:11;;;;;;;;;;;19.70;50.70;;;;;;5095629;28;19908;-60
2022/01/04 07:22:37;;;;;;;;;;;19.70;50.70;;;;;;5095564;28;19951;-60
2022/01/04 07:25:03;;;;;;;;;;;19.70;50.70;;;;;;5095544;28;19947;-60
2022/01/04 07:27:28;;;;;;;;;;;19.70;50.60;;;;;;5095150;28;19908;-60
2022/01/04 07:29:54;;;;;;;;;;;19.80;50.60;;;;;;5095205;28;19920;-60
2022/01/04 07:32:19;;;;;;;;;;;19.70;50.60;;;;;;5095258;28;19953;-60
2022/01/04 07:34:45;;;;;;;;;;;19.80;50.60;;;;;;5095154;28;20010;-60
2022/01/04 07:37:10;;;;;;;;;;;19.80;50.50;;;;;;5095442;28;19912;-60
2022/01/04 07:39:36;;;;;;;;;;;19.80;50.40;;;;;;5093728;28;19934;-62
2022/01/04 07:42:02;;;;;;;;;;;19.30;48.40;;;;;;5095684;28;19912;-61
2022/01/04 07:44:28;;;;;;;;;;;18.40;49.30;;;;;;5095206;28;20344;-61
2022/01/04 07:46:53;;;;;;;;;;;18.30;50.30;;;;;;5093946;28;19952;-61
2022/01/04 07:49:19;;;;;;;;;;;18.20;50.60;;;;;;5094032;28;20334;-61
2022/01/04 07:51:45;;;;;;;;;;;18.10;50.40;;;;;;5094626;28;20031;-62
2022/01/04 07:54:10;;;;;;;;;;;18.50;49.70;;;;;;5094790;28;20010;-61
2022/01/04 07:56:36;;;;;;;;;;;18.90;49.50;;;;;;5094489;28;19951;-60
2022/01/04 07:59:03;;;;;;;;;;;19.20;49.40;;;;;;5093835;28;19965;-61
2022/01/04 08:01:28;;;;;;;;;;;19.30;49.30;;;;;;5094478;28;20314;-60
2022/01/04 08:03:54;;;;;;;;;;;19.50;49.60;;;;;;5094014;28;19954;-60
2022/01/04 08:06:20;;;;;;;;;;;19.50;49.50;;;;;;5094031;28;19908;-62
2022/01/04 08:08:45;;;;;;;;;;;19.60;49.50;;;;;;5093644;28;19953;-61
2022/01/04 08:11:11;;;;;;;;;;;19.70;49.40;;;;;;5075637;28;19923;-61
2022/01/04 08:13:36;;;;;;;;;;;19.70;49.40;;;;;;5093779;28;19912;-61
2022/01/04 08:16:02;;;;;;;;;;;19.70;49.40;;;;;;5093585;28;20005;-62
2022/01/04 08:18:27;;;;;;;;;;;19.80;49.20;;;;;;5093334;28;19908;-62
2022/01/04 08:20:57;;;;;;;;;;;19.80;49.30;;;;;;5093676;28;19923;-63
2022/01/04 08:23:24;;;;;;;;;;;19.80;49.30;;;;;;5091304;28;20399;-63
2022/01/04 08:25:50;;;;;;;;;;;19.80;49.30;;;;;;5093659;28;19908;-62
2022/01/04 08:28:15;;;;;;;;;;;19.80;49.30;;;;;;5093236;28;20049;-62
2022/01/04 08:30:42;;;;;;;;;;;19.90;49.30;;;;;;5093901;28;19923;-61
2022/01/04 08:33:08;;;;;;;;;;;19.90;49.30;;;;;;5093804;28;19909;-62
2022/01/04 08:35:34;;;;;;;;;;;19.90;49.40;;;;;;5093590;28;19930;-63
2022/01/04 08:37:59;;;;;;;;;;;19.90;49.40;;;;;;5093082;28;19915;-62
2022/01/04 08:40:25;;;;;;;;;;;20.00;49.30;;;;;;5092307;28;19909;-62
2022/01/04 08:42:50;;;;;;;;;;;20.00;49.30;;;;;;5093378;28;19908;-60
2022/01/04 08:45:17;;;;;;;;;;;20.00;49.40;;;;;;5074911;28;19916;-61
2022/01/04 08:47:43;;;;;;;;;;;20.00;49.40;;;;;;5092470;28;20306;-61
2022/01/04 08:50:10;;;;;;;;;;;20.00;49.40;;;;;;5093277;28;19923;-61
2022/01/04 08:52:35;;;;;;;;;;;20.00;49.40;;;;;;5074967;28;19908;-61
2022/01/04 08:55:00;;;;;;;;;;;20.00;49.40;;;;;;5093088;28;20428;-62
2022/01/04 08:57:26;;;;;;;;;;;20.00;49.50;;;;;;5073991;28;19920;-60
2022/01/04 08:59:54;;;;;;;;;;;20.00;49.40;;;;;;5093125;28;19927;-61
2022/01/04 09:02:21;;;;;;;;;;;20.00;49.30;;;;;;5074601;28;20287;-62
2022/01/04 09:04:47;;;;;;;;;;;20.10;49.40;;;;;;5092685;28;19918;-60
2022/01/04 09:07:13;;;;;;;;;;;20.10;49.40;;;;;;5092291;28;19912;-61
2022/01/04 09:09:39;;;;;;;;;;;20.10;49.30;;;;;;5092888;28;19920;-62
2022/01/04 09:12:05;;;;;;;;;;;20.10;49.30;;;;;;5092543;28;19908;-62
2022/01/04 09:14:43;;;;;;;;;;;20.10;49.20;;;;;;5092640;28;19915;-63
2022/01/04 09:19:53;;;;;;;;;;;20.20;49.30;;;;;;5090993;28;19962;-62
2022/01/04 09:22:19;;;;;;;;;;;20.10;49.30;;;;;;5092393;28;20272;-61
2022/01/04 09:24:44;;;;;;;;;;;20.20;49.30;;;;;;5092696;28;20420;-62
2022/01/04 09:27:10;;;;;;;;;;;20.20;49.30;;;;;;5092540;28;20010;-61
2022/01/04 09:29:36;;;;;;;;;;;20.20;49.30;;;;;;5092911;28;19947;-62
2022/01/04 09:32:02;;;;;;;;;;;20.20;49.20;;;;;;5092591;28;20364;-62
2022/01/04 09:34:28;;;;;;;;;;;20.20;49.20;;;;;;5074320;28;19912;-62
2022/01/04 09:36:54;;;;;;;;;;;20.20;49.30;;;;;;5092096;28;19977;-62
2022/01/04 09:39:21;;;;;;;;;;;20.20;49.30;;;;;;5092831;28;20351;-61
2022/01/04 09:41:47;;;;;;;;;;;20.20;49.10;;;;;;5092455;28;19919;-61
2022/01/04 09:44:13;;;;;;;;;;;20.30;49.10;;;;;;5092892;28;19908;-61
2022/01/04 09:46:38;;;;;;;;;;;20.30;49.10;;;;;;5092075;28;20384;-61
2022/01/04 09:49:04;;;;;;;;;;;20.30;49.10;;;;;;5090052;28;19995;-61
2022/01/04 09:51:30;;;;;;;;;;;20.30;49.10;;;;;;5092665;28;19912;-61
2022/01/04 09:53:56;;;;;;;;;;;20.30;49.10;;;;;;5076404;28;19953;-62
2022/01/04 09:56:21;;;;;;;;;;;20.30;48.90;;;;;;5096513;28;19908;-61
2022/01/04 09:58:47;;;;;;;;;;;20.40;48.80;;;;;;5095861;28;19969;-62
2022/01/04 10:01:19;;;;;;;;;;;20.40;49.00;;;;;;5078294;28;19908;-62
2022/01/04 10:03:45;;;;;;;;;;;20.30;49.00;;;;;;5078319;28;19908;-61
2022/01/04 10:06:16;;;;;;;;;;;20.30;49.10;;;;;;5096547;28;19908;-62
2022/01/04 10:08:50;;;;;;;;;;;20.30;49.10;;;;;;5095988;28;19909;-61
2022/01/04 10:11:16;;;;;;;;;;;20.30;49.10;;;;;;5096451;28;19916;-61
2022/01/04 10:13:41;;;;;;;;;;;20.30;49.10;;;;;;5096272;28;19915;-61
2022/01/04 10:16:14;;;;;;;;;;;20.30;49.10;;;;;;5096105;28;19908;-61
2022/01/04 10:18:40;;;;;;;;;;;20.40;49.10;;;;;;5095489;28;19948;-60
2022/01/04 10:21:12;;;;;;;;;;;20.40;49.10;;;;;;5096162;28;20319;-61
2022/01/04 10:23:48;;;;;;;;;;;20.40;49.00;;;;;;5096070;28;19912;-62
2022/01/04 10:26:15;;;;;;;;;;;20.40;49.10;;;;;;5096129;28;20310;-62
2022/01/04 10:28:42;;;;;;;;;;;20.40;49.00;;;;;;5095349;28;19908;-60
2022/01/04 10:31:14;;;;;;;;;;;20.40;49.00;;;;;;5096066;28;19916;-61
2022/01/04 10:33:40;;;;;;;;;;;20.40;49.10;;;;;;5095812;28;19915;-61
2022/01/04 10:36:11;;;;;;;;;;;20.40;48.90;;;;;;5096040;28;19908;-62
2022/01/04 10:38:41;;;;;;;;;;;20.40;49.00;;;;;;5095854;28;20375;-62
2022/01/04 10:41:08;;;;;;;;;;;20.40;49.10;;;;;;5095805;28;20378;-63
2022/01/04 10:43:43;;;;;;;;;;;20.40;48.90;;;;;;5095774;28;19908;-63
2022/01/04 10:46:09;;;;;;;;;;;20.40;49.00;;;;;;5095667;28;19916;-61
2022/01/04 10:48:39;;;;;;;;;;;20.40;49.00;;;;;;5095184;28;19987;-61
2022/01/04 10:51:12;;;;;;;;;;;20.40;49.00;;;;;;5096169;28;19923;-61
2022/01/04 10:53:47;;;;;;;;;;;20.40;49.00;;;;;;5095953;28;19919;-61
2022/01/04 10:56:15;;;;;;;;;;;20.40;49.10;;;;;;5077355;28;20350;-60
2022/01/04 10:58:44;;;;;;;;;;;20.50;49.00;;;;;;5094939;28;19950;-61
2022/01/04 11:01:13;;;;;;;;;;;20.50;49.00;;;;;;5094851;28;22337;-61
2022/01/04 11:03:41;;;;;;;;;;;20.50;48.90;;;;;;5094521;28;20006;-62
2022/01/04 11:06:11;;;;;;;;;;;20.50;48.90;;;;;;5095569;28;20348;-63
2022/01/04 11:08:37;;;;;;;;;;;20.50;49.00;;;;;;5076816;28;19918;-62
2022/01/04 11:11:04;;;;;;;;;;;20.50;48.90;;;;;;5095129;28;19916;-63
2022/01/04 11:13:29;;;;;;;;;;;20.50;48.90;;;;;;5095432;28;20336;-62
2022/01/04 11:15:57;;;;;;;;;;;20.50;48.90;;;;;;5095632;28;20271;-61
2022/01/04 11:18:23;;;;;;;;;;;20.50;48.90;;;;;;5095403;28;20367;-62
2022/01/04 11:20:49;;;;;;;;;;;20.50;48.90;;;;;;5095031;28;19909;-61
2022/01/04 11:23:15;;;;;;;;;;;20.50;48.90;;;;;;5095024;28;20003;-62
2022/01/04 11:25:45;;;;;;;;;;;20.50;48.90;;;;;;5077152;28;19908;-61
2022/01/04 11:28:12;;;;;;;;;;;20.50;48.80;;;;;;5095163;28;19916;-60
2022/01/04 11:30:56;;;;;;;;;;;20.50;48.70;;;;;;5094861;28;20395;-62
2022/01/04 11:33:26;;;;;;;;;;;20.50;48.90;;;;;;5095250;28;19909;-62
2022/01/04 11:35:52;;;;;;;;;;;20.50;48.80;;;;;;5094952;28;19908;-62
2022/01/04 11:38:35;;;;;;;;;;;20.50;48.80;;;;;;5094416;28;19931;-61
2022/01/04 11:41:01;;;;;;;;;;;20.60;48.90;;;;;;5094692;28;19919;-61
2022/01/04 11:43:31;;;;;;;;;;;20.50;48.70;;;;;;5095156;28;20390;-62
2022/01/04 11:45:57;;;;;;;;;;;20.50;48.80;;;;;;5094862;28;20379;-62
2022/01/04 11:48:32;;;;;;;;;;;20.60;48.80;;;;;;5094290;28;19915;-61
2022/01/04 11:50:58;;;;;;;;;;;20.60;48.70;;;;;;5076307;28;19920;-60
2022/01/04 11:53:24;;;;;;;;;;;20.60;48.80;;;;;;5094729;28;19915;-62
2022/01/04 11:55:51;;;;;;;;;;;20.60;48.70;;;;;;5094918;28;19909;-62
2022/01/04 11:58:18;;;;;;;;;;;20.60;48.70;;;;;;5094125;28;20003;-62
2022/01/04 12:00:54;;;;;;;;;;;20.60;48.60;;;;;;5094294;28;20037;-63
2022/01/04 12:03:20;;;;;;;;;;;20.60;48.70;;;;;;5094391;28;19908;-61
2022/01/04 12:05:54;;;;;;;;;;;20.60;48.70;;;;;;5076521;28;20370;-61
2022/01/04 12:08:21;;;;;;;;;;;20.70;48.70;;;;;;5093878;28;19919;-62
2022/01/04 12:10:48;;;;;;;;;;;20.70;48.60;;;;;;5093987;28;20044;-61
2022/01/04 12:13:17;;;;;;;;;;;20.60;48.60;;;;;;5094781;28;20366;-61
2022/01/04 12:15:50;;;;;;;;;;;20.60;48.60;;;;;;5094443;28;19994;-61
2022/01/04 12:18:37;;;;;;;;;;;20.70;48.60;;;;;;5094413;28;19962;-60
2022/01/04 12:21:23;;;;;;;;;;;20.60;48.40;;;;;;5093604;28;19999;-62
2022/01/04 12:23:48;;;;;;;;;;;20.60;48.60;;;;;;5093712;28;19962;-62
2022/01/04 12:26:14;;;;;;;;;;;20.60;48.60;;;;;;5075544;28;19909;-61
2022/01/04 12:29:06;;;;;;;;;;;20.60;48.70;;;;;;5093807;28;19908;-60
2022/01/04 12:31:34;;;;;;;;;;;20.60;48.60;;;;;;5093893;28;19916;-62
2022/01/04 12:34:00;;;;;;;;;;;20.70;48.60;;;;;;5093965;28;19998;-60
2022/01/04 12:36:27;;;;;;;;;;;20.70;48.60;;;;;;5075705;28;20371;-61
2022/01/04 12:38:53;;;;;;;;;;;20.70;48.60;;;;;;5075024;28;19952;-60
2022/01/04 12:41:19;;;;;;;;;;;20.70;48.50;;;;;;5093624;28;20452;-61
2022/01/04 12:43:47;;;;;;;;;;;20.70;48.60;;;;;;5093844;28;19966;-61
2022/01/04 12:46:13;;;;;;;;;;;20.70;48.50;;;;;;5093822;28;20420;-62
2022/01/04 12:49:01;;;;;;;;;;;20.70;48.60;;;;;;5093308;28;19914;-60
2022/01/04 12:51:31;;;;;;;;;;;20.70;48.50;;;;;;5094067;28;20006;-61
2022/01/04 12:54:01;;;;;;;;;;;20.70;48.40;;;;;;5093679;28;19961;-60
2022/01/04 12:56:27;;;;;;;;;;;20.80;48.30;;;;;;5094052;28;20241;-60
2022/01/04 12:58:52;;;;;;;;;;;20.80;48.30;;;;;;5093237;28;20283;-60
2022/01/04 13:01:22;;;;;;;;;;;20.80;48.40;;;;;;5091616;28;19909;-59
2022/01/04 13:03:48;;;;;;;;;;;20.70;48.40;;;;;;5091518;28;19908;-60
2022/01/04 13:06:13;;;;;;;;;;;20.70;48.40;;;;;;5091715;28;19920;-59
2022/01/04 13:08:39;;;;;;;;;;;20.70;48.60;;;;;;5073484;28;19908;-60
2022/01/04 13:11:05;;;;;;;;;;;20.70;48.50;;;;;;5091515;28;19920;-60
2022/01/04 13:13:30;;;;;;;;;;;20.70;48.50;;;;;;5091468;28;19915;-60
2022/01/04 13:16:16;;;;;;;;;;;20.70;48.40;;;;;;5093424;28;20005;-60
2022/01/04 13:18:42;;;;;;;;;;;20.80;48.50;;;;;;5093276;28;19908;-60
2022/01/04 13:21:07;;;;;;;;;;;20.80;48.40;;;;;;5093549;28;20291;-60
2022/01/04 13:23:42;;;;;;;;;;;20.80;48.40;;;;;;5093381;28;20280;-60
2022/01/04 13:26:11;;;;;;;;;;;20.80;48.40;;;;;;5092846;28;19908;-60
2022/01/04 13:28:40;;;;;;;;;;;20.80;48.40;;;;;;5093419;28;19912;-60
2022/01/04 13:31:05;;;;;;;;;;;20.70;48.30;;;;;;5075638;28;19916;-60
2022/01/04 13:33:32;;;;;;;;;;;20.80;48.30;;;;;;5093464;28;19954;-60
2022/01/04 13:35:58;;;;;;;;;;;20.80;48.30;;;;;;5075571;28;19915;-60
2022/01/04 13:38:24;;;;;;;;;;;20.80;48.40;;;;;;5093083;28;19986;-60
2022/01/04 13:40:51;;;;;;;;;;;20.80;48.30;;;;;;5093292;28;19908;-60
2022/01/04 13:43:18;;;;;;;;;;;20.80;48.30;;;;;;5093209;28;19999;-60
2022/01/04 13:45:43;;;;;;;;;;;20.80;48.30;;;;;;5093241;28;19908;-60
2022/01/04 13:48:09;;;;;;;;;;;20.80;48.30;;;;;;5093433;28;20331;-60
2022/01/04 13:50:36;;;;;;;;;;;20.80;48.30;;;;;;5093128;28;19923;-60
2022/01/04 13:53:07;;;;;;;;;;;20.80;48.30;;;;;;5093081;28;19981;-60
2022/01/04 13:55:49;;;;;;;;;;;20.80;48.20;;;;;;5093127;28;19909;-60
2022/01/04 13:58:31;;;;;;;;;;;20.80;48.30;;;;;;5092910;28;19939;-60
2022/01/04 14:00:56;;;;;;;;;;;20.80;48.30;;;;;;5093525;28;20022;-59
2022/01/04 14:03:25;;;;;;;;;;;20.80;48.30;;;;;;5074933;28;19972;-60
2022/01/04 14:05:51;;;;;;;;;;;20.80;48.20;;;;;;5093079;28;19912;-59
2022/01/04 14:08:16;;;;;;;;;;;20.80;48.20;;;;;;5092989;28;19966;-60
2022/01/04 14:11:02;;;;;;;;;;;20.80;48.30;;;;;;5092924;28;20050;-59
2022/01/04 14:13:28;;;;;;;;;;;20.80;48.30;;;;;;5092767;28;20399;-61
2022/01/04 14:16:11;;;;;;;;;;;20.70;48.40;;;;;;5092912;28;19960;-60
2022/01/04 14:18:36;;;;;;;;;;;20.70;48.40;;;;;;5092914;28;19998;-60
2022/01/04 14:21:02;;;;;;;;;;;20.70;48.40;;;;;;5092832;28;19946;-59
2022/01/04 14:23:46;;;;;;;;;;;20.70;48.40;;;;;;5092913;28;19915;-59
2022/01/04 14:26:12;;;;;;;;;;;20.70;48.40;;;;;;5092877;28;19908;-60